Time;durP1;ratioP1;P1;durP2;ratioP2;P2;SDS_P1;SDS_P2;PMS_P1;PMS_P2;Temp;Humidity;BMP_temperature;BMP_pressure;BME280_temperature;BME280_humidity;BME280_pressure;Samples;Min_cycle;Max_cycle;Signal;HPM_P1;HPM_P2
2022/12/20 00:00:50;;;;;;;;;;;;;;;14.40;100.00;100102.88;7354360;19;19922;-64
2022/12/20 00:03:18;;;;;;;;;;;;;;;14.40;100.00;100096.78;7354480;19;19934;-65
2022/12/20 00:05:45;;;;;;;;;;;;;;;14.39;100.00;100090.66;7353241;19;19915;-65
2022/12/20 00:08:12;;;;;;;;;;;;;;;14.36;100.00;100103.44;7356979;19;19919;-65
2022/12/20 00:10:40;;;;;;;;;;;;;;;14.36;100.00;100091.06;7355974;19;19922;-66
2022/12/20 00:13:07;;;;;;;;;;;;;;;14.33;100.00;100095.88;7357377;19;20364;-63
2022/12/20 00:15:34;;;;;;;;;;;;;;;14.30;100.00;100102.41;7353667;19;20026;-64
2022/12/20 00:18:01;;;;;;;;;;;;;;;14.29;100.00;100106.03;7354449;19;19915;-65
2022/12/20 00:20:29;;;;;;;;;;;;;;;14.28;100.00;100096.47;7357276;19;20330;-65
2022/12/20 00:22:56;;;;;;;;;;;;;;;14.31;100.00;100088.16;7356790;19;19915;-65
2022/12/20 00:25:23;;;;;;;;;;;;;;;14.29;100.00;100100.75;7356184;19;19942;-65
2022/12/20 00:27:50;;;;;;;;;;;;;;;14.27;100.00;100088.75;7354310;19;19960;-65
2022/12/20 00:30:17;;;;;;;;;;;;;;;14.27;100.00;100096.69;7352936;19;19922;-65
2022/12/20 00:32:44;;;;;;;;;;;;;;;14.26;100.00;100079.16;7353799;19;19923;-65
2022/12/20 00:35:11;;;;;;;;;;;;;;;14.26;100.00;100085.28;7350771;19;19918;-65
2022/12/20 00:37:38;;;;;;;;;;;;;;;14.29;100.00;100090.16;7351632;19;19921;-65
2022/12/20 00:40:06;;;;;;;;;;;;;;;14.29;100.00;100076.94;7353739;19;19935;-64
2022/12/20 00:42:33;;;;;;;;;;;;;;;14.31;100.00;100071.47;7358493;19;19959;-65
2022/12/20 00:44:59;;;;;;;;;;;;;;;14.32;100.00;100070.44;7354927;19;19926;-65
2022/12/20 00:47:26;;;;;;;;;;;;;;;14.32;100.00;100065.97;7353612;19;19927;-64
2022/12/20 00:49:53;;;;;;;;;;;;;;;14.29;100.00;100076.13;7351199;19;20348;-64
2022/12/20 00:52:21;;;;;;;;;;;;;;;14.29;100.00;100065.53;7353178;19;19948;-64
2022/12/20 00:54:48;;;;;;;;;;;;;;;14.30;100.00;100069.81;7351572;19;19923;-65
2022/12/20 00:57:14;;;;;;;;;;;;;;;14.27;100.00;100071.03;7355252;19;19933;-64
2022/12/20 00:59:41;;;;;;;;;;;;;;;14.25;100.00;100072.22;7354598;19;19922;-63
2022/12/20 01:02:08;;;;;;;;;;;;;;;14.22;100.00;100065.47;7361169;19;19927;-64
2022/12/20 01:04:35;;;;;;;;;;;;;;;14.21;100.00;100077.09;7361082;19;19952;-66
2022/12/20 01:07:02;;;;;;;;;;;;;;;14.23;100.00;100066.31;7358817;19;19919;-64
2022/12/20 01:09:30;;;;;;;;;;;;;;;14.21;100.00;100069.16;7357930;19;19922;-66
2022/12/20 01:11:57;;;;;;;;;;;;;;;14.22;100.00;100068.13;7361798;19;20290;-64
2022/12/20 01:14:24;;;;;;;;;;;;;;;14.21;100.00;100071.81;7358582;19;20272;-63
2022/12/20 01:16:50;;;;;;;;;;;;;;;14.16;100.00;100063.66;7359343;19;19925;-64
2022/12/20 01:19:19;;;;;;;;;;;;;;;14.17;100.00;100077.69;7360160;19;20014;-64
2022/12/20 01:21:46;;;;;;;;;;;;;;;14.17;100.00;100075.06;7358556;19;19926;-65
2022/12/20 01:24:14;;;;;;;;;;;;;;;14.17;100.00;100069.75;7359943;19;20301;-64
2022/12/20 01:26:41;;;;;;;;;;;;;;;14.19;100.00;100057.13;7359701;19;19923;-65
2022/12/20 01:29:08;;;;;;;;;;;;;;;14.21;100.00;100055.13;7358346;19;19927;-65
2022/12/20 01:31:35;;;;;;;;;;;;;;;14.22;100.00;100057.53;7357540;19;19926;-66
2022/12/20 01:34:02;;;;;;;;;;;;;;;14.24;100.00;100067.94;7359080;19;19982;-64
2022/12/20 01:36:31;;;;;;;;;;;;;;;14.22;100.00;100052.25;7356145;19;20017;-65
2022/12/20 01:38:59;;;;;;;;;;;;;;;14.21;100.00;100055.13;7358255;19;20099;-65
2022/12/20 01:44:44;;;;;;;;;;;;;;;14.21;100.00;100060.41;7361510;19;19921;-65
2022/12/20 01:47:11;;;;;;;;;;;;;;;14.21;100.00;100060.41;7362840;19;19933;-65
2022/12/20 01:49:42;;;;;;;;;;;;;;;14.21;100.00;100055.13;7360508;19;20374;-65
2022/12/20 01:52:12;;;;;;;;;;;;;;;14.22;100.00;100052.25;7357178;19;19922;-65
2022/12/20 01:54:42;;;;;;;;;;;;;;;14.25;100.00;100049.25;7357673;19;19923;-65
2022/12/20 01:57:11;;;;;;;;;;;;;;;14.26;100.00;100047.41;7360299;19;19910;-64
2022/12/20 01:59:39;;;;;;;;;;;;;;;14.26;100.00;100036.81;7359626;19;19923;-65
2022/12/20 02:02:08;;;;;;;;;;;;;;;14.25;100.00;100029.91;7357674;19;20187;-64
2022/12/20 02:04:35;;;;;;;;;;;;;;;14.26;100.00;100027.06;7359479;19;20265;-63
2022/12/20 02:07:03;;;;;;;;;;;;;;;14.26;100.00;100037.66;7353335;19;20020;-64
2022/12/20 02:09:32;;;;;;;;;;;;;;;14.26;100.00;100031.53;7358118;19;19915;-64
2022/12/20 02:12:00;;;;;;;;;;;;;;;14.25;100.00;100036.00;7356928;19;20319;-64
2022/12/20 02:14:28;;;;;;;;;;;;;;;14.27;100.00;100041.13;7355426;19;19947;-65
2022/12/20 02:16:58;;;;;;;;;;;;;;;14.26;100.00;100042.13;7359233;19;19926;-66
2022/12/20 02:19:29;;;;;;;;;;;;;;;14.27;100.00;100044.56;7359360;19;19945;-66
2022/12/20 02:21:57;;;;;;;;;;;;;;;14.25;100.00;100043.13;7356212;19;19941;-64
2022/12/20 02:24:27;;;;;;;;;;;;;;;14.25;100.00;100040.47;7359904;19;19919;-63
2022/12/20 02:26:54;;;;;;;;;;;;;;;14.25;100.00;100028.06;7358560;19;19922;-65
2022/12/20 02:29:24;;;;;;;;;;;;;;;14.27;100.00;100028.69;7355836;19;20412;-64
2022/12/20 02:31:52;;;;;;;;;;;;;;;14.28;100.00;100029.50;7357002;19;19925;-63
2022/12/20 02:34:23;;;;;;;;;;;;;;;14.23;100.00;100035.38;7351852;19;19919;-65
2022/12/20 02:36:50;;;;;;;;;;;;;;;14.24;100.00;100033.53;7356245;19;19918;-64
2022/12/20 02:39:18;;;;;;;;;;;;;;;14.24;100.00;100041.47;7357451;19;19919;-64
2022/12/20 02:41:50;;;;;;;;;;;;;;;14.26;100.00;100024.41;7355823;19;19938;-65
2022/12/20 02:46:49;;;;;;;;;;;;;;;14.26;100.00;100013.81;7358881;19;19923;-63
2022/12/20 02:49:19;;;;;;;;;;;;;;;14.28;100.00;100014.44;7358381;19;19923;-66
2022/12/20 02:51:48;;;;;;;;;;;;;;;14.29;100.00;100012.59;7356892;19;19960;-64
2022/12/20 02:54:16;;;;;;;;;;;;;;;14.27;100.00;100015.47;7361007;19;19926;-65
2022/12/20 02:56:43;;;;;;;;;;;;;;;14.30;100.00;100014.25;7354896;19;20015;-66
2022/12/20 02:59:13;;;;;;;;;;;;;;;14.28;100.00;100011.78;7356390;19;19914;-65
2022/12/20 03:01:43;;;;;;;;;;;;;;;14.30;100.00;100003.66;7356911;19;19922;-65
2022/12/20 03:04:11;;;;;;;;;;;;;;;14.32;100.00;99997.16;7356285;19;20545;-64
2022/12/20 03:09:54;;;;;;;;;;;;;;;14.32;100.00;99981.28;7356457;19;19923;-64
2022/12/20 03:12:21;;;;;;;;;;;;;;;14.34;100.00;99984.53;7328664;19;19922;-64
2022/12/20 03:14:48;;;;;;;;;;;;;;;14.33;100.00;99976.78;7346882;19;19919;-64
2022/12/20 03:17:15;;;;;;;;;;;;;;;14.31;100.00;99973.53;7349259;19;19919;-63
2022/12/20 03:19:42;;;;;;;;;;;;;;;14.33;100.00;99992.66;7352760;19;19957;-64
2022/12/20 03:22:09;;;;;;;;;;;;;;;14.34;100.00;99973.13;7347488;19;19926;-64
2022/12/20 03:24:36;;;;;;;;;;;;;;;14.35;100.00;99974.78;7350238;19;20288;-64
2022/12/20 03:27:02;;;;;;;;;;;;;;;14.36;100.00;99966.66;7352924;19;19922;-65
2022/12/20 03:29:29;;;;;;;;;;;;;;;14.39;100.00;99971.56;7357153;19;20296;-65
2022/12/20 03:31:56;;;;;;;;;;;;;;;14.39;100.00;99968.09;7354791;19;19929;-64
2022/12/20 03:34:23;;;;;;;;;;;;;;;14.38;100.00;99963.81;7357741;19;21219;-63
2022/12/20 03:36:50;;;;;;;;;;;;;;;14.38;100.00;99963.81;7350831;19;19922;-63
2022/12/20 03:39:17;;;;;;;;;;;;;;;14.36;100.00;99963.19;7356139;19;20383;-64
2022/12/20 03:41:43;;;;;;;;;;;;;;;14.36;100.00;99966.66;7354257;19;20222;-64
2022/12/20 03:44:10;;;;;;;;;;;;;;;14.35;100.00;99969.47;7356695;19;19918;-65
2022/12/20 03:46:37;;;;;;;;;;;;;;;14.31;100.00;99961.13;7333526;19;19939;-64
2022/12/20 03:49:04;;;;;;;;;;;;;;;14.31;100.00;99962.94;7351142;19;20399;-65
2022/12/20 03:51:31;;;;;;;;;;;;;;;14.33;100.00;99953.78;7344610;19;20361;-65
2022/12/20 03:53:58;;;;;;;;;;;;;;;14.30;100.00;99946.25;7344427;19;20050;-65
2022/12/20 03:56:25;;;;;;;;;;;;;;;14.29;100.00;99951.75;7347608;19;19919;-66
2022/12/20 03:58:52;;;;;;;;;;;;;;;14.28;100.00;99947.44;7351630;19;20582;-65
2022/12/20 04:01:20;;;;;;;;;;;;;;;14.29;100.00;99949.09;7351144;19;19955;-65
2022/12/20 04:03:48;;;;;;;;;;;;;;;14.30;100.00;99945.44;7353096;19;19914;-65
2022/12/20 04:06:15;;;;;;;;;;;;;;;14.31;100.00;99947.06;7350008;19;19925;-64
2022/12/20 04:08:43;;;;;;;;;;;;;;;14.29;100.00;99934.03;7355222;19;19979;-65
2022/12/20 04:13:40;;;;;;;;;;;;;;;14.30;100.00;99940.16;7354156;19;19929;-64
2022/12/20 04:16:07;;;;;;;;;;;;;;;14.29;100.00;99936.69;7353121;19;20356;-65
2022/12/20 04:18:34;;;;;;;;;;;;;;;14.27;100.00;99941.38;7354007;19;20548;-64
2022/12/20 04:21:01;;;;;;;;;;;;;;;14.27;100.00;99945.84;7354202;19;19922;-65
2022/12/20 04:23:28;;;;;;;;;;;;;;;14.26;100.00;99960.91;7354720;19;19923;-65
2022/12/20 04:25:55;;;;;;;;;;;;;;;14.27;100.00;99956.44;7355800;19;19936;-64
2022/12/20 04:28:22;;;;;;;;;;;;;;;14.24;100.00;99944.41;7352856;19;20392;-64
2022/12/20 04:30:49;;;;;;;;;;;;;;;14.23;100.00;99947.22;7353623;19;19927;-64
2022/12/20 04:33:16;;;;;;;;;;;;;;;14.19;100.00;99940.72;7353087;19;19934;-65
2022/12/20 04:35:42;;;;;;;;;;;;;;;14.16;100.00;99949.88;7355878;19;19926;-64
2022/12/20 04:38:09;;;;;;;;;;;;;;;14.17;100.00;99935.59;7359204;19;19930;-64
2022/12/20 04:40:36;;;;;;;;;;;;;;;14.18;100.00;99931.94;7359470;19;19919;-64
2022/12/20 04:43:03;;;;;;;;;;;;;;;14.18;100.00;99926.66;7359569;19;21535;-64
2022/12/20 04:45:30;;;;;;;;;;;;;;;14.17;100.00;99932.97;7345285;19;19923;-66
2022/12/20 04:47:57;;;;;;;;;;;;;;;14.13;100.00;99921.97;7342542;19;19923;-64
2022/12/20 04:50:34;;;;;;;;;;;;;;;14.12;100.00;99924.81;7353019;19;20288;-63
2022/12/20 04:55:35;;;;;;;;;;;;;;;14.12;100.00;99914.22;7352803;19;20002;-64
2022/12/20 04:58:02;;;;;;;;;;;;;;;14.14;100.00;99901.63;7358198;19;20020;-64
2022/12/20 05:00:33;;;;;;;;;;;;;;;14.14;100.00;99901.63;7357278;19;20334;-64
2022/12/20 05:03:00;;;;;;;;;;;;;;;14.13;100.00;99911.38;7358909;19;19914;-65
2022/12/20 05:05:41;;;;;;;;;;;;;;;14.13;100.00;99905.28;7352391;19;19926;-63
2022/12/20 05:08:08;;;;;;;;;;;;;;;14.14;100.00;99901.63;7358183;19;19959;-64
2022/12/20 05:10:36;;;;;;;;;;;;;;;14.12;100.00;99907.09;7360430;19;19947;-65
2022/12/20 05:13:03;;;;;;;;;;;;;;;14.14;100.00;99917.50;7360120;19;19930;-64
2022/12/20 05:15:35;;;;;;;;;;;;;;;14.13;100.00;99902.63;7360460;19;19971;-65
2022/12/20 05:18:02;;;;;;;;;;;;;;;14.11;100.00;99912.63;7358810;19;19919;-64
2022/12/20 05:20:30;;;;;;;;;;;;;;;14.12;100.00;99917.69;7356499;19;20602;-65
2022/12/20 05:27:57;;;;;;;;;;;;;;;14.18;100.00;99928.50;7360277;19;19927;-64
2022/12/20 05:30:25;;;;;;;;;;;;;;;14.18;100.00;99928.50;7360634;19;19923;-64
2022/12/20 05:32:51;;;;;;;;;;;;;;;14.21;100.00;99918.34;7355250;19;19934;-64
2022/12/20 05:35:18;;;;;;;;;;;;;;;14.21;100.00;99915.69;7356931;19;19922;-65
2022/12/20 05:37:45;;;;;;;;;;;;;;;14.23;100.00;99913.66;7358930;19;20424;-64
2022/12/20 05:40:12;;;;;;;;;;;;;;;14.20;100.00;99910.59;7359870;19;20377;-64
2022/12/20 05:42:39;;;;;;;;;;;;;;;14.21;100.00;99909.59;7362651;19;20730;-64
2022/12/20 05:45:06;;;;;;;;;;;;;;;14.21;100.00;99910.41;7348362;19;20396;-64
2022/12/20 05:47:33;;;;;;;;;;;;;;;14.21;100.00;99917.53;7343978;19;19915;-64
2022/12/20 05:50:00;;;;;;;;;;;;;;;14.21;100.00;99912.25;7351943;19;19930;-64
2022/12/20 05:52:27;;;;;;;;;;;;;;;14.22;100.00;99924.47;7358487;19;19986;-64
2022/12/20 05:54:54;;;;;;;;;;;;;;;14.21;100.00;99912.25;7357991;19;20253;-65
2022/12/20 05:57:21;;;;;;;;;;;;;;;14.22;100.00;99913.88;7354145;19;19923;-64
2022/12/20 05:59:47;;;;;;;;;;;;;;;14.21;100.00;99922.81;7357934;19;19934;-65
2022/12/20 06:02:14;;;;;;;;;;;;;;;14.17;100.00;99925.03;7355786;19;19929;-64
2022/12/20 06:04:42;;;;;;;;;;;;;;;14.16;100.00;99927.88;7358287;19;19926;-64
2022/12/20 06:07:08;;;;;;;;;;;;;;;14.13;100.00;99931.72;7355997;19;19919;-65
2022/12/20 06:09:35;;;;;;;;;;;;;;;14.14;100.00;99928.91;7359027;19;19915;-65
2022/12/20 06:12:02;;;;;;;;;;;;;;;14.17;100.00;99935.59;7357718;19;19981;-64
2022/12/20 06:14:29;;;;;;;;;;;;;;;14.16;100.00;99941.13;7356961;19;20407;-65
2022/12/20 06:16:56;;;;;;;;;;;;;;;14.16;100.00;99941.13;7354234;19;19965;-65
2022/12/20 06:19:23;;;;;;;;;;;;;;;14.14;100.00;99951.88;7358452;19;19943;-65
2022/12/20 06:21:50;;;;;;;;;;;;;;;14.10;100.00;99955.94;7355082;19;19934;-65
2022/12/20 06:24:17;;;;;;;;;;;;;;;14.12;100.00;99959.19;7357950;19;19922;-64
2022/12/20 06:26:44;;;;;;;;;;;;;;;14.09;100.00;99954.31;7357772;19;19930;-64
2022/12/20 06:29:13;;;;;;;;;;;;;;;14.04;100.00;99964.66;7356377;19;19923;-65
2022/12/20 06:31:40;;;;;;;;;;;;;;;14.03;100.00;99976.25;7356719;19;19923;-65
2022/12/20 06:34:07;;;;;;;;;;;;;;;14.01;100.00;100000.28;7357112;19;19923;-64
2022/12/20 06:36:33;;;;;;;;;;;;;;;14.04;100.00;100005.16;7350732;19;19919;-64
2022/12/20 06:39:01;;;;;;;;;;;;;;;14.07;100.00;100014.53;7358281;19;20868;-65
2022/12/20 06:41:35;;;;;;;;;;;;;;;14.04;100.00;100028.97;7354012;19;20470;-65
2022/12/20 06:44:02;;;;;;;;;;;;;;;13.99;100.00;100043.78;7355170;19;19922;-64
2022/12/20 06:46:29;;;;;;;;;;;;;;;13.92;100.00;100046.38;7354931;19;19925;-66
2022/12/20 06:48:56;;;;;;;;;;;;;;;13.88;100.00;100046.97;7358007;19;20352;-66
2022/12/20 06:51:23;;;;;;;;;;;;;;;13.88;100.00;100052.25;7354421;19;20733;-64
2022/12/20 06:53:50;;;;;;;;;;;;;;;13.85;100.00;100052.66;7355715;19;19923;-63
2022/12/20 06:56:17;;;;;;;;;;;;;;;13.79;100.00;100062.19;7353236;19;19995;-65
2022/12/20 06:58:45;;;;;;;;;;;;;;;13.71;100.00;100068.41;7357088;19;20332;-67
2022/12/20 07:01:12;;;;;;;;;;;;;;;13.66;100.00;100073.44;7355978;19;20237;-64
2022/12/20 07:03:53;;;;;;;;;;;;;;;13.60;100.00;100074.25;7353539;19;19914;-65
2022/12/20 07:06:20;;;;;;;;;;;;;;;13.58;100.00;100086.00;7353119;19;19929;-64
2022/12/20 07:09:01;;;;;;;;;;;;;;;13.53;100.00;100093.69;7351761;19;20019;-65
2022/12/20 07:11:37;;;;;;;;;;;;;;;13.47;100.00;100107.66;7355192;19;19919;-64
2022/12/20 07:14:13;;;;;;;;;;;;;;;13.42;100.00;100110.03;7357728;19;21490;-63
2022/12/20 07:16:42;;;;;;;;;;;;;;;13.40;100.00;100117.34;7352950;19;19926;-66
2022/12/20 07:19:11;;;;;;;;;;;;;;;13.35;100.00;100120.56;7355809;19;19945;-64
2022/12/20 07:21:37;;;;;;;;;;;;;;;13.33;100.00;100119.09;7353853;19;20162;-63
2022/12/20 07:24:05;;;;;;;;;;;;;;;13.30;100.00;100117.66;7355852;19;20155;-64
2022/12/20 07:26:32;;;;;;;;;;;;;;;13.26;100.00;100134.88;7354312;19;20296;-65
2022/12/20 07:28:59;;;;;;;;;;;;;;;13.19;100.00;100153.31;7357893;19;19915;-65
2022/12/20 07:31:39;;;;;;;;;;;;;;;13.15;99.86;100146.78;7353048;19;20390;-65
2022/12/20 07:34:06;;;;;;;;;;;;;;;13.12;100.00;100147.13;7357004;19;19923;-65
2022/12/20 07:36:37;;;;;;;;;;;;;;;13.13;100.00;100150.59;7348505;19;20384;-65
2022/12/20 07:39:04;;;;;;;;;;;;;;;13.10;99.32;100159.69;7353673;19;19919;-65
2022/12/20 07:41:31;;;;;;;;;;;;;;;13.08;99.42;100166.97;7355836;19;19925;-65
2022/12/20 07:43:58;;;;;;;;;;;;;;;13.06;99.79;100168.97;7356423;19;20379;-65
2022/12/20 07:46:25;;;;;;;;;;;;;;;13.06;99.87;100162.88;7353933;19;20520;-65
2022/12/20 07:48:53;;;;;;;;;;;;;;;12.99;99.68;100162.00;7355258;19;20229;-65
2022/12/20 07:51:23;;;;;;;;;;;;;;;12.99;100.00;100169.91;7349665;19;19927;-65
2022/12/20 07:53:53;;;;;;;;;;;;;;;12.97;100.00;100175.38;7353729;19;19923;-65
2022/12/20 07:56:21;;;;;;;;;;;;;;;12.96;100.00;100172.91;7351751;19;20261;-64
2022/12/20 07:58:49;;;;;;;;;;;;;;;12.92;100.00;100172.47;7353731;19;19923;-64
2022/12/20 08:01:15;;;;;;;;;;;;;;;12.86;100.00;100184.56;7354480;19;19925;-65
2022/12/20 08:03:46;;;;;;;;;;;;;;;12.81;100.00;100188.75;7354960;19;20966;-65
2022/12/20 08:06:14;;;;;;;;;;;;;;;12.76;100.00;100204.34;7353194;19;20297;-64
2022/12/20 08:08:43;;;;;;;;;;;;;;;12.70;100.00;100194.50;7354514;19;19934;-65
2022/12/20 08:11:11;;;;;;;;;;;;;;;12.67;100.00;100208.06;7353848;19;21549;-64
2022/12/20 08:13:38;;;;;;;;;;;;;;;12.64;100.00;100206.63;7354801;19;20119;-64
2022/12/20 08:16:12;;;;;;;;;;;;;;;12.59;100.00;100219.56;7353757;19;19927;-64
2022/12/20 08:18:39;;;;;;;;;;;;;;;12.56;100.00;100227.81;7355198;19;19943;-66
2022/12/20 08:21:06;;;;;;;;;;;;;;;12.56;100.00;100234.91;7350559;19;20473;-65
2022/12/20 08:23:33;;;;;;;;;;;;;;;12.55;100.00;100246.44;7350651;19;19937;-65
2022/12/20 08:26:01;;;;;;;;;;;;;;;12.55;100.00;100249.09;7352788;19;20348;-64
2022/12/20 08:28:28;;;;;;;;;;;;;;;12.55;100.00;100241.19;7354977;19;19915;-64
2022/12/20 08:30:58;;;;;;;;;;;;;;;12.54;100.00;100244.84;7356871;19;19923;-64
2022/12/20 08:33:25;;;;;;;;;;;;;;;12.55;100.00;100246.44;7354579;19;20018;-64
2022/12/20 08:35:57;;;;;;;;;;;;;;;12.55;100.00;100260.47;7354015;19;20023;-64
2022/12/20 08:38:25;;;;;;;;;;;;;;;12.55;100.00;100262.28;7355693;19;19982;-65
2022/12/20 08:40:52;;;;;;;;;;;;;;;12.52;100.00;100266.13;7355682;19;19923;-64
2022/12/20 08:43:19;;;;;;;;;;;;;;;12.46;100.00;100279.19;7353162;19;19945;-65
2022/12/20 08:45:51;;;;;;;;;;;;;;;12.38;100.00;100280.09;7355540;19;19914;-66
2022/12/20 08:48:17;;;;;;;;;;;;;;;12.31;100.00;100276.53;7356440;19;20295;-65
2022/12/20 08:50:44;;;;;;;;;;;;;;;12.28;100.00;100276.91;7353890;19;19926;-64
2022/12/20 08:53:12;;;;;;;;;;;;;;;12.23;100.00;100285.34;7351900;19;19941;-65
2022/12/20 08:55:39;;;;;;;;;;;;;;;12.25;100.00;100291.25;7354244;19;19923;-64
2022/12/20 08:58:06;;;;;;;;;;;;;;;12.26;100.00;100287.59;7352042;19;20289;-65
2022/12/20 09:00:33;;;;;;;;;;;;;;;12.29;100.00;100297.78;7356137;19;19933;-65
2022/12/20 09:03:00;;;;;;;;;;;;;;;12.27;98.95;100299.00;7354235;19;20726;-64
2022/12/20 09:05:27;;;;;;;;;;;;;;;12.24;98.04;100304.63;7353189;19;20352;-65
2022/12/20 09:07:54;;;;;;;;;;;;;;;12.19;96.45;100305.13;7352097;19;20010;-65
2022/12/20 09:10:21;;;;;;;;;;;;;;;12.14;96.37;100301.41;7353254;19;19939;-65
2022/12/20 09:12:48;;;;;;;;;;;;;;;12.09;95.71;100296.63;7352184;19;20020;-64
2022/12/20 09:15:15;;;;;;;;;;;;;;;12.05;94.97;100307.72;7353130;19;19919;-66
2022/12/20 09:17:42;;;;;;;;;;;;;;;12.02;95.01;100326.53;7351196;19;19919;-65
2022/12/20 09:20:09;;;;;;;;;;;;;;;11.98;94.60;100331.34;7350168;19;20585;-64
2022/12/20 09:22:36;;;;;;;;;;;;;;;11.97;95.19;100333.16;7359030;19;20276;-66
2022/12/20 09:25:05;;;;;;;;;;;;;;;11.95;94.73;100345.66;7359254;19;19923;-65
2022/12/20 09:27:32;;;;;;;;;;;;;;;11.94;94.99;100351.09;7360578;19;19923;-65
2022/12/20 09:29:59;;;;;;;;;;;;;;;11.92;94.81;100348.66;7355996;19;19933;-65
2022/12/20 09:32:26;;;;;;;;;;;;;;;11.92;94.90;100347.84;7358172;19;19931;-64
2022/12/20 09:34:53;;;;;;;;;;;;;;;11.90;94.98;100348.00;7358684;19;19934;-64
2022/12/20 09:37:20;;;;;;;;;;;;;;;11.88;95.06;100362.38;7356825;19;20372;-66
2022/12/20 09:39:49;;;;;;;;;;;;;;;11.88;95.91;100365.00;7361897;19;20377;-64
2022/12/20 09:42:17;;;;;;;;;;;;;;;11.89;95.58;100382.44;7360136;19;19934;-64
2022/12/20 09:44:44;;;;;;;;;;;;;;;11.88;96.05;100372.91;7358085;19;19987;-66
2022/12/20 09:47:15;;;;;;;;;;;;;;;11.84;95.43;100382.97;7359629;19;19925;-64
2022/12/20 09:49:44;;;;;;;;;;;;;;;11.81;95.13;100375.41;7355536;19;19929;-66
2022/12/20 09:52:14;;;;;;;;;;;;;;;11.79;95.05;100381.84;7355508;19;19990;-65
2022/12/20 09:54:42;;;;;;;;;;;;;;;11.79;95.49;100390.56;7358060;19;20339;-66
2022/12/20 09:57:12;;;;;;;;;;;;;;;11.79;96.24;100390.56;7358454;19;20820;-64
2022/12/20 09:59:40;;;;;;;;;;;;;;;11.77;95.44;100387.28;7359326;19;19926;-65
2022/12/20 10:02:18;;;;;;;;;;;;;;;11.75;95.89;100394.53;7359058;19;20450;-64
2022/12/20 10:05:12;;;;;;;;;;;;;;;11.77;96.53;100403.13;7357934;19;19922;-63
2022/12/20 10:07:47;;;;;;;;;;;;;;;11.81;97.38;100390.41;7355614;19;20020;-64
2022/12/20 10:10:15;;;;;;;;;;;;;;;11.82;97.24;100405.22;7358109;19;19929;-65
2022/12/20 10:12:45;;;;;;;;;;;;;;;11.80;96.79;100402.75;7355933;19;19939;-64
2022/12/20 10:15:16;;;;;;;;;;;;;;;11.76;96.23;100405.91;7358766;19;19986;-65
2022/12/20 10:17:46;;;;;;;;;;;;;;;11.75;95.92;100401.63;7355233;19;20113;-63
2022/12/20 10:20:21;;;;;;;;;;;;;;;11.74;95.67;100408.72;7357227;19;19926;-65
2022/12/20 10:22:51;;;;;;;;;;;;;;;11.77;94.95;100411.03;7354550;19;19990;-65
2022/12/20 10:25:21;;;;;;;;;;;;;;;11.82;95.63;100405.22;7359491;19;20356;-66
2022/12/20 10:27:50;;;;;;;;;;;;;;;11.85;96.26;100404.88;7357449;19;19976;-64
2022/12/20 10:30:18;;;;;;;;;;;;;;;11.78;94.70;100396.84;7356740;19;20492;-64
2022/12/20 10:32:46;;;;;;;;;;;;;;;11.68;94.14;100398.84;7353503;19;19919;-65
2022/12/20 10:35:14;;;;;;;;;;;;;;;11.68;94.33;100398.00;7354650;19;19929;-65
2022/12/20 10:37:44;;;;;;;;;;;;;;;11.71;95.26;100403.75;7355657;19;19919;-64
2022/12/20 10:40:50;;;;;;;;;;;;;;;11.77;95.75;100397.84;7357852;19;20376;-64
2022/12/20 10:43:40;;;;;;;;;;;;;;;11.82;95.94;100392.06;7359549;19;19937;-65
2022/12/20 10:46:07;;;;;;;;;;;;;;;11.82;95.21;100400.78;7355905;19;19923;-64
2022/12/20 10:48:36;;;;;;;;;;;;;;;11.85;95.78;100391.69;7357573;19;19942;-64
2022/12/20 10:51:13;;;;;;;;;;;;;;;11.89;95.29;100396.44;7354099;19;19929;-64
2022/12/20 10:53:45;;;;;;;;;;;;;;;11.93;95.11;100396.94;7355901;19;19987;-64
2022/12/20 10:56:15;;;;;;;;;;;;;;;11.94;94.83;100388.84;7357244;19;20287;-65
2022/12/20 10:58:50;;;;;;;;;;;;;;;11.93;94.29;100392.50;7354658;19;19919;-64
2022/12/20 11:01:18;;;;;;;;;;;;;;;11.96;93.55;100394.78;7358883;19;19922;-65
2022/12/20 11:03:48;;;;;;;;;;;;;;;11.96;92.93;100391.31;7355468;19;20357;-65
2022/12/20 11:06:17;;;;;;;;;;;;;;;11.97;93.23;100393.78;7355542;19;19938;-64
2022/12/20 11:08:44;;;;;;;;;;;;;;;11.99;93.40;100396.22;7353246;19;20020;-66
2022/12/20 11:11:23;;;;;;;;;;;;;;;12.05;93.10;100397.34;7354662;19;19931;-64
2022/12/20 11:13:51;;;;;;;;;;;;;;;12.07;92.94;100398.03;7355592;19;19923;-65
2022/12/20 11:16:21;;;;;;;;;;;;;;;12.08;92.47;100391.75;7355286;19;19933;-65
2022/12/20 11:18:50;;;;;;;;;;;;;;;12.08;91.53;100399.66;7354694;19;20563;-64
2022/12/20 11:21:17;;;;;;;;;;;;;;;12.05;90.88;100392.09;7353735;19;19994;-64
2022/12/20 11:23:59;;;;;;;;;;;;;;;12.07;90.61;100398.84;7355212;19;19929;-64
2022/12/20 11:26:26;;;;;;;;;;;;;;;12.10;91.26;100403.75;7354283;19;20591;-64
2022/12/20 11:28:56;;;;;;;;;;;;;;;12.11;90.66;100404.59;7354901;19;19925;-64
2022/12/20 11:31:31;;;;;;;;;;;;;;;12.13;90.72;100398.16;7355385;19;19949;-65
2022/12/20 11:34:02;;;;;;;;;;;;;;;12.16;91.57;100404.88;7354381;19;20024;-64
2022/12/20 11:39:20;;;;;;;;;;;;;;;12.21;90.83;100413.09;7356797;19;19963;-64
2022/12/20 11:41:54;;;;;;;;;;;;;;;12.18;90.02;100411.66;7355405;19;20353;-64
2022/12/20 11:44:29;;;;;;;;;;;;;;;12.18;89.44;100435.38;7355212;19;20094;-66
2022/12/20 11:47:03;;;;;;;;;;;;;;;12.21;89.52;100421.84;7354465;19;19922;-65
2022/12/20 11:49:31;;;;;;;;;;;;;;;12.23;89.47;100425.13;7353812;19;19922;-66
2022/12/20 11:52:01;;;;;;;;;;;;;;;12.25;89.32;100417.84;7350909;19;20292;-66
2022/12/20 11:54:33;;;;;;;;;;;;;;;12.29;89.18;100423.63;7352996;19;19934;-65
2022/12/20 11:57:05;;;;;;;;;;;;;;;12.31;89.79;100414.53;7354875;19;19918;-65
2022/12/20 11:59:35;;;;;;;;;;;;;;;12.33;89.55;100406.44;7356106;19;20648;-65
2022/12/20 12:02:06;;;;;;;;;;;;;;;12.36;88.97;100408.72;7353051;19;19957;-65
2022/12/20 12:04:37;;;;;;;;;;;;;;;12.39;87.82;100408.41;7348303;19;19915;-65
2022/12/20 12:07:07;;;;;;;;;;;;;;;12.39;88.13;100406.53;7351883;19;20286;-65
2022/12/20 12:09:37;;;;;;;;;;;;;;;12.39;87.22;100411.81;7354558;19;19930;-64
2022/12/20 12:12:09;;;;;;;;;;;;;;;12.41;87.48;100401.09;7355962;19;19926;-64
2022/12/20 12:14:39;;;;;;;;;;;;;;;12.44;87.47;100395.50;7353416;19;19936;-65
2022/12/20 12:17:11;;;;;;;;;;;;;;;12.46;87.40;100404.03;7354123;19;20003;-65
2022/12/20 12:19:41;;;;;;;;;;;;;;;12.48;87.96;100403.88;7352531;19;20836;-63
2022/12/20 12:22:14;;;;;;;;;;;;;;;12.54;88.09;100395.25;7352135;19;20317;-65
2022/12/20 12:24:44;;;;;;;;;;;;;;;12.57;88.00;100393.06;7351993;19;19941;-65
2022/12/20 12:27:19;;;;;;;;;;;;;;;12.58;87.82;100389.44;7354598;19;20324;-65
2022/12/20 12:29:46;;;;;;;;;;;;;;;12.54;86.11;100389.97;7355976;19;19942;-66
2022/12/20 12:32:18;;;;;;;;;;;;;;;12.52;85.07;100382.22;7352074;19;19965;-66
2022/12/20 12:34:48;;;;;;;;;;;;;;;12.51;84.54;100379.75;7352183;19;20737;-64
2022/12/20 12:37:18;;;;;;;;;;;;;;;12.55;84.75;100381.03;7349175;19;20837;-65
2022/12/20 12:39:48;;;;;;;;;;;;;;;12.59;85.56;100380.53;7352434;19;19930;-65
2022/12/20 12:42:18;;;;;;;;;;;;;;;12.60;84.42;100376.06;7352908;19;20172;-65
2022/12/20 12:44:48;;;;;;;;;;;;;;;12.62;83.79;100376.72;7354311;19;19926;-65
2022/12/20 12:47:18;;;;;;;;;;;;;;;12.64;84.02;100378.19;7352431;19;19926;-65
2022/12/20 12:49:48;;;;;;;;;;;;;;;12.63;83.21;100383.63;7355177;19;19998;-64
2022/12/20 12:52:18;;;;;;;;;;;;;;;12.62;83.27;100380.19;7353399;19;19940;-64
2022/12/20 12:54:45;;;;;;;;;;;;;;;12.62;83.34;100379.34;7352018;19;20388;-64
2022/12/20 12:57:14;;;;;;;;;;;;;;;12.59;81.73;100377.06;7358631;19;19934;-65
2022/12/20 12:59:45;;;;;;;;;;;;;;;12.61;82.12;100383.81;7361447;19;20005;-65
2022/12/20 13:02:14;;;;;;;;;;;;;;;12.61;81.94;100385.63;7359637;19;19929;-65